Time;durP1;ratioP1;P1;durP2;ratioP2;P2;SDS_P1;SDS_P2;PMS_P1;PMS_P2;Temp;Humidity;BMP_temperature;BMP_pressure;BME280_temperature;BME280_humidity;BME280_pressure;Samples;Min_cycle;Max_cycle;Signal;HPM_P1;HPM_P2
2022/11/22 00:00:10;;;;;;;62.10;35.50;;;;;;;1.27;77.35;97978.49;103605;1292;99223;-66
2022/11/22 00:03:02;;;;;;;57.60;32.00;;;;;;;1.31;77.51;97978.98;103583;1292;99275;-67
2022/11/22 00:05:30;;;;;;;59.90;33.90;;;;;;;1.32;77.32;97978.92;103602;1291;112807;-67
2022/11/22 00:07:58;;;;;;;62.60;36.30;;;;;;;1.35;77.44;97980.33;103618;1291;96459;-67
2022/11/22 00:10:26;;;;;;;63.20;34.50;;;;;;;1.39;77.48;97981.02;103685;1291;106824;-67
2022/11/22 00:12:58;;;;;;;56.50;33.30;;;;;;;1.44;77.71;97983.36;103648;1297;99317;-68
2022/11/22 00:15:30;;;;;;;54.00;31.90;;;;;;;1.48;77.54;97978.60;103657;1291;96428;-67
2022/11/22 00:17:58;;;;;;;55.70;31.00;;;;;;;1.52;77.69;97976.83;103668;1283;112992;-67
2022/11/22 00:20:30;;;;;;;51.90;28.00;;;;;;;1.57;77.46;97973.42;103682;1289;99175;-67
2022/11/22 00:22:58;;;;;;;54.50;30.40;;;;;;;1.61;77.61;97976.39;103676;1290;108058;-67
2022/11/22 00:25:26;;;;;;;49.30;27.00;;;;;;;1.65;77.55;97975.81;103694;1289;99326;-66
2022/11/22 00:27:59;;;;;;;51.20;29.00;;;;;;;1.68;77.59;97976.32;103604;1292;99202;-67
2022/11/22 00:30:26;;;;;;;51.60;29.80;;;;;;;1.70;77.56;97975.86;103736;1299;112503;-66
2022/11/22 00:32:57;;;;;;;51.40;28.60;;;;;;;1.72;77.41;97974.00;103709;1298;99288;-67
2022/11/22 00:35:25;;;;;;;49.40;27.90;;;;;;;1.75;77.75;97975.11;103661;1296;108065;-67
2022/11/22 00:37:53;;;;;;;48.70;28.80;;;;;;;1.77;77.58;97976.92;103688;1298;99173;-66
2022/11/22 00:40:21;;;;;;;49.70;28.60;;;;;;;1.79;77.42;97976.46;103563;1292;99306;-68
2022/11/22 00:42:49;;;;;;;47.00;25.40;;;;;;;1.81;77.61;97978.48;103670;1298;112771;-67
2022/11/22 00:45:17;;;;;;;47.20;25.90;;;;;;;1.82;77.39;97977.02;103629;1299;99375;-68
2022/11/22 00:47:44;;;;;;;45.50;25.00;;;;;;;1.84;77.62;97979.48;103639;1299;106853;-68
2022/11/22 00:50:12;;;;;;;42.70;24.70;;;;;;;1.86;77.81;97983.23;103598;1299;99192;-68
2022/11/22 00:52:40;;;;;;;46.50;25.70;;;;;;;1.87;77.61;97978.65;103666;1291;100298;-67
2022/11/22 00:55:08;;;;;;;45.10;25.80;;;;;;;1.90;77.63;97983.39;103624;1292;112933;-68
2022/11/22 00:57:36;;;;;;;40.40;25.20;;;;;;;1.91;77.69;97980.66;103625;1298;99259;-67
2022/11/22 01:00:09;;;;;;;45.80;26.40;;;;;;;1.94;77.68;97981.23;103617;1297;107883;-68
2022/11/22 01:02:36;;;;;;;44.50;24.60;;;;;;;1.96;77.64;97980.79;103564;1291;99194;-68
2022/11/22 01:05:09;;;;;;;42.60;24.00;;;;;;;1.97;77.62;97980.36;103475;1290;99313;-68
2022/11/22 01:07:39;;;;;;;41.30;21.80;;;;;;;1.99;77.69;97975.58;103592;1291;112924;-67
2022/11/22 01:10:12;;;;;;;40.10;21.80;;;;;;;1.99;77.58;97972.75;103634;1282;96452;-67
2022/11/22 01:12:40;;;;;;;44.60;24.00;;;;;;;1.99;77.46;97969.96;103617;1298;108037;-67
2022/11/22 01:15:11;;;;;;;39.90;22.50;;;;;;;1.99;77.72;97967.85;103633;1291;96555;-67
2022/11/22 01:17:38;;;;;;;39.80;23.30;;;;;;;2.00;77.61;97970.26;103623;1292;99306;-68
2022/11/22 01:20:09;;;;;;;42.80;23.00;;;;;;;2.00;77.72;97970.78;103633;1289;112777;-67
2022/11/22 01:22:37;;;;;;;44.40;22.70;;;;;;;2.00;77.74;97974.98;103626;1297;99254;-67
2022/11/22 01:25:09;;;;;;;42.90;23.10;;;;;;;1.99;77.52;97978.31;103613;1291;108129;-68
2022/11/22 01:27:37;;;;;;;41.80;23.80;;;;;;;1.99;77.72;97980.60;103619;1291;99246;-67
2022/11/22 01:30:09;;;;;;;42.30;22.60;;;;;;;1.99;77.57;97977.81;103665;1289;99378;-67
2022/11/22 01:32:41;;;;;;;43.40;23.10;;;;;;;1.99;77.85;97978.70;103592;1297;112367;-67
2022/11/22 01:35:09;;;;;;;45.90;24.10;;;;;;;1.99;77.68;97976.41;103652;1297;99036;-67
2022/11/22 01:37:44;;;;;;;40.40;22.20;;;;;;;1.98;77.67;97976.81;103585;1296;107995;-66
2022/11/22 01:40:15;;;;;;;41.60;23.10;;;;;;;1.97;77.70;97981.08;103582;1299;99139;-68
2022/11/22 01:42:43;;;;;;;44.10;24.30;;;;;;;1.97;77.80;97982.84;103596;1291;96572;-68
2022/11/22 01:45:30;;;;;;;44.10;23.60;;;;;;;1.96;77.67;97980.42;103586;1288;112969;-65
2022/11/22 01:48:23;;;;;;;30.90;17.00;;;;;;;1.97;77.70;97976.20;103593;1291;99299;-67
2022/11/22 01:51:12;;;;;;;44.00;23.40;;;;;;;1.96;77.66;97981.66;103642;1299;107681;-67
2022/11/22 01:53:44;;;;;;;42.30;23.20;;;;;;;1.97;77.55;97981.64;103559;1299;97915;-67
2022/11/22 01:56:16;;;;;;;47.70;23.70;;;;;;;1.98;77.73;97984.34;103709;1282;99210;-67
2022/11/22 01:58:53;;;;;;;45.90;23.50;;;;;;;2.01;77.86;97983.33;103693;1291;112884;-67
2022/11/22 02:01:20;;;;;;;46.50;25.60;;;;;;;2.03;77.78;97977.23;103653;1298;99312;-67
2022/11/22 02:03:59;;;;;;;46.80;24.30;;;;;;;2.05;77.64;97973.09;103522;1294;108499;-66
2022/11/22 02:06:41;;;;;;;46.00;24.00;;;;;;;2.07;77.81;97971.77;103699;1296;96526;-66
2022/11/22 02:09:15;;;;;;;41.20;23.00;;;;;;;2.09;77.79;97978.52;103725;1291;96462;-67
2022/11/22 02:11:54;;;;;;;41.90;22.50;;;;;;;2.07;77.69;97977.16;103654;1292;112150;-67
2022/11/22 02:14:30;;;;;;;41.40;21.80;;;;;;;2.08;77.63;97980.99;103600;1281;96539;-67
2022/11/22 02:16:58;;;;;;;38.00;20.80;;;;;;;2.06;77.77;97974.60;103497;1291;108510;-67
2022/11/22 02:19:40;;;;;;;41.80;22.70;;;;;;;2.07;77.77;97977.72;103680;1299;99315;-67
2022/11/22 02:22:46;;;;;;;41.30;22.20;;;;;;;2.09;77.72;97974.11;103555;1291;99258;-68
2022/11/22 02:25:40;;;;;;;39.30;20.70;;;;;;;2.11;77.89;97978.39;103651;1292;112814;-67
2022/11/22 02:28:13;;;;;;;39.10;22.30;;;;;;;2.11;77.78;97977.51;103553;1294;99270;-65
2022/11/22 02:30:45;;;;;;;33.50;17.20;;;;;;;2.12;77.81;97976.42;103537;1291;108567;-67
2022/11/22 02:33:13;;;;;;;40.80;24.10;;;;;;;2.13;77.92;97978.12;103665;1291;99184;-67
2022/11/22 02:35:46;;;;;;;39.80;22.70;;;;;;;2.15;77.92;97983.74;103630;1291;99273;-67
2022/11/22 02:38:34;;;;;;;39.90;22.20;;;;;;;2.16;77.81;97988.04;103609;1297;112974;-67
2022/11/22 02:41:10;;;;;;;42.30;25.10;;;;;;;2.17;77.76;97991.48;103485;1297;96617;-66
2022/11/22 02:43:46;;;;;;;41.10;23.00;;;;;;;2.19;77.70;97993.00;103618;1289;107502;-67
2022/11/22 02:46:19;;;;;;;44.80;24.70;;;;;;;2.16;77.82;97998.02;103659;1291;99194;-65
2022/11/22 02:48:49;;;;;;;40.10;22.30;;;;;;;2.16;77.66;98004.85;103609;1289;99365;-66
2022/11/22 02:51:21;;;;;;;37.20;22.20;;;;;;;2.15;77.70;98009.29;103637;1282;112339;-66
2022/11/22 02:53:55;;;;;;;42.10;22.70;;;;;;;2.14;77.61;98015.63;103637;1276;99247;-66
2022/11/22 02:56:27;;;;;;;43.80;24.40;;;;;;;2.13;77.75;98021.66;103588;1291;108270;-67
2022/11/22 02:58:55;;;;;;;41.00;22.50;;;;;;;2.10;77.75;98018.83;103659;1290;99341;-65
2022/11/22 03:01:23;;;;;;;42.00;23.40;;;;;;;2.09;77.70;98023.10;103708;1299;99301;-65
2022/11/22 03:03:55;;;;;;;41.80;23.30;;;;;;;2.07;77.58;98019.34;103616;1299;113110;-66
2022/11/22 03:06:26;;;;;;;43.20;23.10;;;;;;;2.06;77.76;98014.31;103618;1292;99938;-67
2022/11/22 03:08:57;;;;;;;40.80;21.90;;;;;;;2.04;77.65;98009.91;103442;1298;108145;-67
2022/11/22 03:11:25;;;;;;;38.60;22.70;;;;;;;2.01;77.49;98003.60;103577;1299;99349;-67
2022/11/22 03:13:53;;;;;;;40.40;22.30;;;;;;;1.97;77.58;98009.42;103613;1291;99188;-67
2022/11/22 03:16:25;;;;;;;37.50;21.50;;;;;;;1.88;77.56;98012.13;103678;1297;112634;-67
2022/11/22 03:18:57;;;;;;;39.70;21.60;;;;;;;1.85;77.74;98008.46;103731;1295;99290;-66
2022/11/22 03:21:29;;;;;;;41.10;22.10;;;;;;;1.84;77.72;98006.11;103713;1291;108931;-66
2022/11/22 03:23:57;;;;;;;41.90;22.50;;;;;;;1.79;77.68;98004.58;103620;1292;99223;-67
2022/11/22 03:26:25;;;;;;;46.90;24.50;;;;;;;1.72;77.54;98004.81;103479;1291;96620;-66
2022/11/22 03:28:53;;;;;;;42.70;24.60;;;;;;;1.63;77.55;98004.56;103575;1297;112971;-67
2022/11/22 03:31:21;;;;;;;47.50;25.80;;;;;;;1.57;77.70;98013.11;103598;1288;96955;-67
2022/11/22 03:33:54;;;;;;;44.90;25.20;;;;;;;1.55;77.66;98011.99;103519;1298;107115;-67
2022/11/22 03:36:22;;;;;;;45.70;25.80;;;;;;;1.54;77.52;98009.42;103721;1291;99087;-67
2022/11/22 03:38:50;;;;;;;43.80;24.30;;;;;;;1.53;77.84;98008.59;103748;1295;99317;-66
2022/11/22 03:41:22;;;;;;;44.00;24.60;;;;;;;1.52;77.67;98010.24;103610;1295;112961;-67
2022/11/22 03:43:50;;;;;;;44.50;24.50;;;;;;;1.51;77.81;98005.73;103696;1292;98073;-66
2022/11/22 03:46:18;;;;;;;43.00;21.80;;;;;;;1.50;77.86;97998.41;103636;1292;107713;-71
2022/11/22 03:48:50;;;;;;;42.00;21.50;;;;;;;1.48;77.82;98003.23;103632;1297;99716;-67
2022/11/22 03:51:18;;;;;;;41.30;22.60;;;;;;;1.45;77.75;98001.45;103608;1290;99532;-68
2022/11/22 03:53:46;;;;;;;42.30;22.40;;;;;;;1.43;77.62;98003.52;103610;1289;113481;-69
2022/11/22 03:56:14;;;;;;;45.80;23.90;;;;;;;1.37;77.61;98000.84;103686;1292;99227;-68
2022/11/22 03:58:42;;;;;;;43.40;22.80;;;;;;;1.31;77.73;98003.09;103622;1295;107967;-68
2022/11/22 04:01:10;;;;;;;42.10;22.60;;;;;;;1.25;77.62;97999.90;103560;1292;99236;-68
2022/11/22 04:03:45;;;;;;;42.80;23.00;;;;;;;1.17;77.82;98000.65;103436;1294;97768;-68
2022/11/22 04:06:16;;;;;;;44.90;24.20;;;;;;;1.14;77.63;97999.27;103507;1282;113085;-68
2022/11/22 04:08:43;;;;;;;43.80;25.40;;;;;;;1.14;77.56;97999.42;103663;1295;99159;-69
2022/11/22 04:11:11;;;;;;;45.20;24.30;;;;;;;1.13;77.86;97998.59;103619;1289;108078;-68
2022/11/22 04:16:29;;;;;;;43.50;24.30;;;;;;;1.11;77.87;98006.05;103592;1291;99226;-67
2022/11/22 04:19:01;;;;;;;42.60;22.50;;;;;;;1.10;77.69;98008.52;103571;1290;112685;-67
2022/11/22 04:21:35;;;;;;;37.70;21.30;;;;;;;1.10;77.94;98004.69;103588;1291;99294;-67
2022/11/22 04:26:58;;;;;;;43.20;22.50;;;;;;;1.09;77.43;98010.50;103589;1296;98323;-68
2022/11/22 04:29:30;;;;;;;41.00;21.90;;;;;;;1.08;77.84;98008.45;103471;1299;99277;-67
2022/11/22 04:35:09;;;;;;;40.30;23.10;;;;;;;1.04;77.54;98007.77;103114;1297;96776;-68
2022/11/22 04:37:36;;;;;;;41.80;22.40;;;;;;;0.99;77.82;98013.95;103148;1297;107918;-68
2022/11/22 04:40:06;;;;;;;45.80;24.00;;;;;;;0.93;77.57;98018.64;103422;1289;99388;-69
2022/11/22 04:45:22;;;;;;;44.70;24.10;;;;;;;0.87;77.64;98013.15;103466;1291;143881;-68
2022/11/22 04:47:59;;;;;;;40.00;22.10;;;;;;;0.87;77.78;98012.30;103591;1291;99257;-67
2022/11/22 04:53:20;;;;;;;41.30;23.10;;;;;;;0.90;77.67;98006.00;103513;1296;96594;-67
2022/11/22 04:55:52;;;;;;;44.40;22.90;;;;;;;0.93;77.80;98004.18;103546;1289;99210;-68
2022/11/22 04:58:21;;;;;;;43.60;20.50;;;;;;;0.93;77.80;98008.33;103499;1289;112943;-69
2022/11/22 05:00:50;;;;;;;41.20;20.90;;;;;;;0.92;77.88;98009.09;103610;1289;96908;-68
2022/11/22 05:03:22;;;;;;;39.80;21.20;;;;;;;0.95;78.00;98017.33;103454;1292;108388;-69
2022/11/22 05:05:50;;;;;;;42.50;22.40;;;;;;;0.98;77.91;98022.41;103542;1292;99290;-68
2022/11/22 05:08:18;;;;;;;41.90;21.30;;;;;;;1.02;77.82;98024.97;103523;1276;99449;-70
2022/11/22 05:10:58;;;;;;;40.10;20.00;;;;;;;1.07;77.81;98026.67;103484;1291;113139;-69
2022/11/22 05:13:39;;;;;;;38.30;19.00;;;;;;;1.09;78.04;98026.41;103549;1291;99213;-70
2022/11/22 05:16:13;;;;;;;39.10;19.80;;;;;;;1.09;78.10;98029.54;103601;1292;107558;-69
2022/11/22 05:18:42;;;;;;;36.20;18.40;;;;;;;1.11;77.81;98033.27;103497;1291;99210;-69
2022/11/22 05:21:15;;;;;;;37.70;19.20;;;;;;;1.12;77.90;98032.00;103597;1298;99320;-68
2022/11/22 05:23:55;;;;;;;36.40;17.50;;;;;;;1.14;77.74;98035.39;103607;1297;113400;-68
2022/11/22 05:26:34;;;;;;;34.90;17.70;;;;;;;1.16;77.99;98047.71;103600;1282;99252;-68
2022/11/22 05:29:08;;;;;;;32.80;16.50;;;;;;;1.18;77.93;98051.95;103624;1291;107312;-69
2022/11/22 05:31:40;;;;;;;34.90;18.10;;;;;;;1.20;77.99;98052.23;103617;1299;99282;-68
2022/11/22 05:34:22;;;;;;;31.50;16.50;;;;;;;1.19;78.02;98056.27;103615;1291;96632;-68
2022/11/22 05:36:50;;;;;;;36.20;17.90;;;;;;;1.18;77.96;98053.52;103642;1292;112982;-68
2022/11/22 05:39:22;;;;;;;31.10;16.20;;;;;;;1.15;77.97;98053.63;103670;1292;97535;-68
2022/11/22 05:41:56;;;;;;;35.00;17.20;;;;;;;1.16;78.01;98056.23;103535;1290;107963;-69
2022/11/22 05:44:27;;;;;;;34.70;17.70;;;;;;;1.15;78.11;98059.63;103601;1295;99175;-68
2022/11/22 05:46:59;;;;;;;34.70;17.90;;;;;;;1.13;78.12;98058.16;103638;1290;98424;-68
2022/11/22 05:49:27;;;;;;;35.40;18.00;;;;;;;1.13;77.86;98053.77;103513;1291;112414;-68
2022/11/22 05:52:04;;;;;;;32.70;15.70;;;;;;;1.15;77.95;98052.79;103606;1292;99269;-69
2022/11/22 05:54:31;;;;;;;34.60;16.70;;;;;;;1.15;77.98;98053.46;103481;1292;106974;-70
2022/11/22 05:56:59;;;;;;;30.60;16.20;;;;;;;1.17;77.98;98056.19;103573;1296;99952;-70
2022/11/22 05:59:27;;;;;;;31.40;16.00;;;;;;;1.20;77.84;98056.92;103616;1290;99200;-69
2022/11/22 06:01:59;;;;;;;32.30;16.20;;;;;;;1.22;78.20;98059.42;103549;1291;113308;-69
2022/11/22 06:04:32;;;;;;;30.80;15.00;;;;;;;1.23;78.16;98056.39;103644;1297;99191;-71
2022/11/22 06:07:03;;;;;;;31.50;15.80;;;;;;;1.25;77.94;98060.16;103490;1292;107949;-69
2022/11/22 06:09:38;;;;;;;34.40;15.30;;;;;;;1.27;78.11;98063.55;103596;1299;99163;-68
2022/11/22 06:12:07;;;;;;;33.90;16.30;;;;;;;1.28;77.96;98061.24;103411;1292;97614;-68
2022/11/22 06:14:35;;;;;;;28.00;14.40;;;;;;;1.29;77.88;98063.43;103484;1298;113198;-68
2022/11/22 06:17:10;;;;;;;33.90;15.60;;;;;;;1.30;78.10;98058.00;103436;1295;99130;-70
2022/11/22 06:19:38;;;;;;;30.90;15.00;;;;;;;1.29;77.92;98059.56;103570;1292;108189;-68
2022/11/22 06:22:06;;;;;;;28.10;12.50;;;;;;;1.31;77.87;98056.87;103607;1290;98310;-68
2022/11/22 06:24:36;;;;;;;29.70;13.80;;;;;;;1.32;77.85;98058.03;103610;1296;99210;-68
2022/11/22 06:27:04;;;;;;;29.40;12.60;;;;;;;1.34;77.98;98050.63;103605;1299;113092;-68
2022/11/22 06:29:32;;;;;;;27.60;13.20;;;;;;;1.34;78.00;98050.96;103562;1296;96482;-67
2022/11/22 06:32:03;;;;;;;27.60;12.60;;;;;;;1.35;78.04;98053.02;103646;1295;108079;-68
2022/11/22 06:34:31;;;;;;;27.50;12.10;;;;;;;1.34;78.04;98058.48;103572;1299;99314;-69
2022/11/22 06:36:59;;;;;;;30.10;13.80;;;;;;;1.34;77.99;98063.18;103406;1298;99183;-69
2022/11/22 06:39:27;;;;;;;27.70;12.80;;;;;;;1.35;78.07;98062.13;103491;1298;112940;-68
2022/11/22 06:41:56;;;;;;;28.40;12.90;;;;;;;1.36;78.06;98062.58;103601;1297;97792;-69
2022/11/22 06:44:24;;;;;;;25.10;11.80;;;;;;;1.34;77.97;98054.14;103640;1295;107651;-70
2022/11/22 06:46:55;;;;;;;29.70;12.50;;;;;;;1.32;77.97;98056.98;103636;1292;98152;-69
2022/11/22 06:49:23;;;;;;;25.90;12.30;;;;;;;1.32;77.64;98061.21;103637;1299;99212;-71
2022/11/22 06:51:51;;;;;;;28.50;12.30;;;;;;;1.32;77.92;98062.59;103670;1281;111330;-70
2022/11/22 06:54:18;;;;;;;27.50;12.20;;;;;;;1.33;78.05;98057.63;103627;1289;99240;-71
2022/11/22 06:56:46;;;;;;;28.60;12.50;;;;;;;1.34;78.03;98054.79;103656;1295;107258;-69
2022/11/22 06:59:14;;;;;;;27.70;11.90;;;;;;;1.38;78.14;98057.22;103487;1297;99328;-69
2022/11/22 07:01:42;;;;;;;28.20;11.90;;;;;;;1.41;78.04;98057.10;103605;1299;99324;-69
2022/11/22 07:04:13;;;;;;;28.00;12.30;;;;;;;1.43;77.97;98064.30;103611;1297;113111;-69
2022/11/22 07:06:42;;;;;;;30.50;13.30;;;;;;;1.45;78.11;98064.38;103619;1297;98455;-70
2022/11/22 07:09:13;;;;;;;28.30;12.70;;;;;;;1.47;78.20;98061.83;103588;1296;107959;-69
2022/11/22 07:11:41;;;;;;;27.50;12.70;;;;;;;1.49;78.13;98063.29;103437;1303;99315;-68
2022/11/22 07:14:09;;;;;;;29.60;12.70;;;;;;;1.53;78.11;98064.88;103595;1297;96607;-68
2022/11/22 07:16:41;;;;;;;32.50;14.30;;;;;;;1.57;78.06;98070.06;103618;1291;113181;-69
2022/11/22 07:19:09;;;;;;;32.10;13.80;;;;;;;1.62;78.18;98068.05;103628;1290;99237;-68
2022/11/22 07:21:37;;;;;;;28.80;12.60;;;;;;;1.67;78.24;98066.77;103608;1298;108132;-68
2022/11/22 07:24:08;;;;;;;29.90;13.30;;;;;;;1.71;78.14;98067.60;103574;1282;99213;-68
2022/11/22 07:26:42;;;;;;;29.30;12.70;;;;;;;1.74;78.14;98071.09;103662;1289;99370;-69
2022/11/22 07:29:10;;;;;;;28.50;11.90;;;;;;;1.79;78.23;98074.02;103579;1297;113159;-68
2022/11/22 07:31:46;;;;;;;27.40;12.00;;;;;;;1.83;78.32;98076.59;103633;1297;97489;-69
2022/11/22 07:34:14;;;;;;;29.50;13.70;;;;;;;1.87;78.21;98070.23;103630;1299;107445;-68
2022/11/22 07:36:42;;;;;;;25.10;11.00;;;;;;;1.90;78.26;98065.88;103605;1297;97935;-68
2022/11/22 07:39:13;;;;;;;26.40;12.10;;;;;;;1.96;78.30;98068.58;103611;1298;96514;-68
2022/11/22 07:41:41;;;;;;;28.10;11.90;;;;;;;2.01;78.16;98060.77;103429;1298;113104;-70
2022/11/22 07:44:12;;;;;;;27.40;11.60;;;;;;;2.06;78.27;98064.34;103617;1292;96542;-68
2022/11/22 07:46:40;;;;;;;30.80;13.30;;;;;;;2.11;78.27;98064.98;103428;1288;107743;-72
2022/11/22 07:49:11;;;;;;;25.70;11.20;;;;;;;2.15;78.11;98063.16;103397;1298;99235;-69
2022/11/22 07:51:39;;;;;;;28.40;12.30;;;;;;;2.20;78.17;98056.44;103624;1298;99187;-68
2022/11/22 07:54:13;;;;;;;26.20;11.00;;;;;;;2.25;78.23;98050.20;103587;1291;112808;-68
2022/11/22 07:56:41;;;;;;;27.20;12.10;;;;;;;2.30;78.19;98045.20;103461;1295;98485;-68
2022/11/22 07:59:09;;;;;;;26.20;10.80;;;;;;;2.35;78.23;98040.92;103629;1290;108031;-70
2022/11/22 08:01:43;;;;;;;28.40;12.20;;;;;;;2.40;78.17;98034.89;103640;1291;97720;-69
2022/11/22 08:04:11;;;;;;;24.60;11.10;;;;;;;2.44;78.25;98037.11;103696;1297;99249;-68
2022/11/22 08:06:42;;;;;;;25.90;10.90;;;;;;;2.48;78.35;98036.14;103501;1296;112810;-68
2022/11/22 08:09:10;;;;;;;27.70;12.10;;;;;;;2.55;78.22;98038.93;103669;1298;99310;-69
2022/11/22 08:11:40;;;;;;;24.30;10.30;;;;;;;2.62;78.18;98041.70;103671;1290;108022;-68
2022/11/22 08:14:08;;;;;;;27.40;11.30;;;;;;;2.69;78.35;98040.94;103675;1295;99311;-70
2022/11/22 08:16:36;;;;;;;27.20;11.70;;;;;;;2.77;78.15;98045.08;103639;1290;96539;-68
2022/11/22 08:19:04;;;;;;;25.00;10.80;;;;;;;2.86;78.07;98051.19;103592;1291;111721;-68
2022/11/22 08:21:32;;;;;;;25.80;12.40;;;;;;;2.97;78.08;98058.61;103678;1297;99880;-68
2022/11/22 08:24:02;;;;;;;24.90;11.00;;;;;;;3.06;78.22;98055.14;103615;1299;108097;-68
2022/11/22 08:26:31;;;;;;;27.10;12.30;;;;;;;3.12;78.00;98046.90;103619;1290;97897;-69
2022/11/22 08:29:09;;;;;;;27.80;12.50;;;;;;;3.16;78.03;98043.73;103617;1299;99206;-72
2022/11/22 08:31:44;;;;;;;27.40;11.70;;;;;;;3.20;78.20;98047.30;103686;1299;113011;-72
2022/11/22 08:34:12;;;;;;;26.40;11.10;;;;;;;3.29;78.22;98052.56;103625;1290;99203;-70
2022/11/22 08:36:40;;;;;;;25.10;13.20;;;;;;;3.41;78.21;98053.45;103634;1297;106103;-71
2022/11/22 08:39:08;;;;;;;27.40;12.60;;;;;;;3.59;78.41;98056.02;103693;1291;99214;-72
2022/11/22 08:41:39;;;;;;;27.30;12.50;;;;;;;3.84;78.10;98052.64;103619;1297;99356;-73
2022/11/22 08:44:07;;;;;;;27.80;11.80;;;;;;;4.02;78.14;98052.71;103709;1298;112532;-73
2022/11/22 08:46:35;;;;;;;26.20;12.80;;;;;;;4.20;78.04;98056.42;103705;1291;99272;-72
2022/11/22 08:49:05;;;;;;;26.10;11.40;;;;;;;4.31;78.04;98055.33;103645;1297;107171;-73
2022/11/22 08:51:43;;;;;;;27.10;12.20;;;;;;;4.44;77.87;98057.52;103580;1297;99321;-71
2022/11/22 08:54:15;;;;;;;25.80;11.40;;;;;;;4.60;77.87;98061.08;103647;1292;96432;-71
2022/11/22 08:56:43;;;;;;;26.10;11.10;;;;;;;4.66;77.26;98063.47;103622;1298;112513;-71
2022/11/22 08:59:11;;;;;;;24.70;10.60;;;;;;;4.69;77.35;98059.41;103656;1298;99317;-70
2022/11/22 09:01:39;;;;;;;24.40;9.90;;;;;;;4.94;77.31;98062.89;103616;1289;107509;-69
2022/11/22 09:04:10;;;;;;;24.80;10.50;;;;;;;5.23;77.63;98056.93;103614;1299;99240;-69
2022/11/22 09:06:38;;;;;;;24.10;10.70;;;;;;;5.55;77.58;98055.50;103603;1282;97631;-69
2022/11/22 09:09:32;;;;;;;23.40;9.40;;;;;;;5.89;77.64;98057.73;103584;1297;113188;-69
2022/11/22 09:12:10;;;;;;;19.60;8.20;;;;;;;5.99;76.93;98057.77;103598;1296;99877;-69
2022/11/22 09:14:39;;;;;;;22.90;10.30;;;;;;;6.12;76.98;98060.23;103574;1297;108054;-68
2022/11/22 09:17:10;;;;;;;22.70;9.30;;;;;;;6.30;76.65;98055.78;103607;1295;99288;-69
2022/11/22 09:19:45;;;;;;;22.00;9.70;;;;;;;6.39;76.89;98051.80;103502;1291;99217;-69
2022/11/22 09:22:13;;;;;;;24.80;10.10;;;;;;;6.55;77.15;98050.66;103664;1289;113139;-69
2022/11/22 09:24:40;;;;;;;20.10;8.60;;;;;;;6.62;77.02;98048.92;103661;1299;99300;-69
2022/11/22 09:27:08;;;;;;;21.60;9.00;;;;;;;6.75;76.83;98046.79;103660;1297;107949;-69
2022/11/22 09:29:37;;;;;;;21.60;8.90;;;;;;;6.79;76.80;98045.42;103602;1291;99230;-68
2022/11/22 09:32:10;;;;;;;21.20;8.90;;;;;;;6.81;76.90;98040.70;103682;1298;99273;-69
2022/11/22 09:34:38;;;;;;;;;;;;;;;6.98;77.10;98037.14;103503;1299;112996;-67
2022/11/22 09:37:08;;;;;;;20.20;8.80;;;;;;;7.10;77.03;98028.15;103668;1297;99291;-70
2022/11/22 09:39:36;;;;;;;20.80;8.40;;;;;;;7.22;77.00;98023.06;103630;1290;108100;-68
2022/11/22 09:42:34;;;;;;;22.90;9.30;;;;;;;7.26;76.61;98020.30;103514;1293;99422;-69
2022/11/22 09:45:41;;;;;;;20.80;8.70;;;;;;;7.20;76.20;98021.45;103627;1298;98309;-69
2022/11/22 09:48:53;;;;;;;21.40;9.70;;;;;;;7.19;76.37;98028.90;103633;1295;113027;-68
2022/11/22 09:51:37;;;;;;;21.30;8.90;;;;;;;7.22;76.41;98035.41;103604;1296;99220;-69
2022/11/22 09:54:14;;;;;;;;;;;;;;;7.24;76.37;98028.93;103451;1294;107710;-69
2022/11/22 09:56:48;;;;;;;20.10;8.10;;;;;;;7.27;76.33;98021.93;103437;1299;99333;-69
2022/11/22 09:59:32;;;;;;;22.20;9.40;;;;;;;7.44;76.25;98022.08;103685;1290;99222;-70
2022/11/22 10:02:17;;;;;;;20.10;8.70;;;;;;;7.52;76.33;98025.23;103658;1299;112536;-69
2022/11/22 10:05:01;;;;;;;21.10;9.10;;;;;;;7.56;76.13;98026.79;103703;1298;99285;-69
2022/11/22 10:07:38;;;;;;;19.50;7.90;;;;;;;7.57;76.03;98025.69;103665;1298;106281;-69
2022/11/22 10:10:20;;;;;;;20.50;8.00;;;;;;;7.60;76.07;98022.48;103628;1297;99179;-71
2022/11/22 10:13:04;;;;;;;20.80;8.50;;;;;;;7.69;76.27;98028.54;103650;1298;99223;-69
2022/11/22 10:16:06;;;;;;;21.10;8.70;;;;;;;7.75;75.93;98022.04;103679;1295;112596;-69
2022/11/22 10:18:42;;;;;;;19.20;8.30;;;;;;;7.75;75.70;98022.34;103497;1293;99315;-70
2022/11/22 10:21:17;;;;;;;21.40;8.90;;;;;;;7.80;75.94;98026.92;103640;1297;107948;-69
2022/11/22 10:23:47;;;;;;;20.50;8.40;;;;;;;7.83;75.33;98027.23;103654;1289;99310;-68
2022/11/22 10:26:31;;;;;;;18.00;7.70;;;;;;;7.83;75.65;98033.77;103722;1297;99235;-68
2022/11/22 10:29:22;;;;;;;;;;;;;;;7.90;75.40;98029.70;103692;1292;112588;-69
2022/11/22 10:32:09;;;;;;;18.30;7.50;;;;;;;7.89;75.30;98025.55;103679;1289;99243;-68
2022/11/22 10:35:12;;;;;;;18.50;7.30;;;;;;;7.90;74.28;98024.58;103550;1299;107811;-70
2022/11/22 10:37:55;;;;;;;17.70;7.60;;;;;;;7.71;74.16;98033.86;103653;1297;99327;-68
2022/11/22 10:40:53;;;;;;;19.00;7.40;;;;;;;7.62;74.67;98043.66;103646;1297;99220;-69
2022/11/22 10:43:39;;;;;;;17.00;6.80;;;;;;;7.65;74.42;98035.84;103663;1291;112986;-69
2022/11/22 10:46:40;;;;;;;18.90;6.90;;;;;;;7.62;74.61;98018.64;103653;1284;96795;-69
2022/11/22 10:49:32;;;;;;;17.40;6.80;;;;;;;7.76;74.89;98013.44;103654;1295;108075;-70
2022/11/22 10:52:15;;;;;;;;;;;;;;;7.84;74.31;98014.41;103699;1295;99273;-69
2022/11/22 10:54:49;;;;;;;17.70;6.90;;;;;;;7.85;74.23;98016.10;103696;1298;99342;-69
2022/11/22 10:57:46;;;;;;;15.00;6.10;;;;;;;7.91;73.70;98016.41;103722;1292;113234;-70
2022/11/22 11:00:28;;;;;;;17.50;6.60;;;;;;;7.87;73.66;98012.10;103627;1295;99315;-70
2022/11/22 11:03:31;;;;;;;17.00;7.30;;;;;;;7.87;74.13;98009.78;103686;1295;106174;-69
2022/11/22 11:06:25;;;;;;;18.40;7.20;;;;;;;8.00;74.09;98017.98;103638;1295;100012;-70
2022/11/22 11:09:47;;;;;;;19.90;7.10;;;;;;;8.08;73.86;98020.92;103664;1297;99297;-72
2022/11/22 11:13:00;;;;;;;18.70;7.60;;;;;;;8.05;73.64;98025.50;103674;1292;113099;-70
2022/11/22 11:15:46;;;;;;;16.70;7.30;;;;;;;8.05;73.32;98029.59;103647;1297;96427;-68
2022/11/22 11:18:53;;;;;;;14.80;6.30;;;;;;;8.00;73.57;98037.75;103635;1296;106495;-68
2022/11/22 11:21:25;;;;;;;17.20;6.90;;;;;;;7.98;73.12;98038.80;103489;1295;96614;-69
2022/11/22 11:23:53;;;;;;;16.20;6.50;;;;;;;7.98;73.29;98042.81;103686;1296;99283;-70
2022/11/22 11:26:30;;;;;;;16.30;6.40;;;;;;;8.01;73.17;98035.20;103432;1299;113173;-69
2022/11/22 11:29:16;;;;;;;;;;;;;;;7.98;72.90;98029.42;103651;1297;99244;-69
2022/11/22 11:32:11;;;;;;;15.10;6.50;;;;;;;7.88;72.79;98035.27;103662;1295;108492;-69
2022/11/22 11:34:52;;;;;;;16.70;6.60;;;;;;;7.81;72.90;98037.45;103676;1295;99328;-68
2022/11/22 11:37:38;;;;;;;17.40;7.20;;;;;;;7.85;73.12;98040.64;103665;1298;99314;-69
2022/11/22 11:40:27;;;;;;;17.80;7.10;;;;;;;7.93;73.13;98033.70;103479;1288;113152;-69
2022/11/22 11:43:21;;;;;;;17.90;7.00;;;;;;;8.00;73.03;98022.88;103559;1297;99217;-68
2022/11/22 11:45:53;;;;;;;19.80;7.60;;;;;;;7.99;72.96;98020.83;103638;1296;107607;-68
2022/11/22 11:48:42;;;;;;;17.80;6.60;;;;;;;8.03;72.85;98018.09;103672;1291;99285;-68
2022/11/22 11:51:24;;;;;;;15.90;6.70;;;;;;;8.12;73.05;98014.94;103504;1296;99383;-68
2022/11/22 11:54:00;;;;;;;16.70;6.50;;;;;;;8.16;72.63;98014.43;103646;1298;112911;-69
2022/11/22 11:56:44;;;;;;;16.10;6.80;;;;;;;8.16;72.58;98015.13;103610;1289;96502;-69
2022/11/22 11:59:32;;;;;;;15.00;6.60;;;;;;;8.18;72.46;98022.68;103438;1299;108048;-68
2022/11/22 12:02:15;;;;;;;18.50;7.40;;;;;;;8.18;72.38;98019.70;103506;1299;100767;-68